createdAt,value
2023-03-15T00:00:12.548Z,74.80
2023-03-15T00:02:41.854Z,74.57
2023-03-15T00:05:14.269Z,75.76
2023-03-15T00:07:44.509Z,75.28
2023-03-15T00:10:12.984Z,76.87
2023-03-15T00:12:42.771Z,76.41
2023-03-15T00:15:15.283Z,77.29
2023-03-15T00:17:45.049Z,77.55
2023-03-15T00:20:14.853Z,78.53
2023-03-15T00:22:43.753Z,78.48
2023-03-15T00:25:12.197Z,78.68
2023-03-15T00:27:40.479Z,78.80
2023-03-15T00:30:09.750Z,78.90
2023-03-15T00:32:39.547Z,79.02
2023-03-15T00:35:08.297Z,79.32
2023-03-15T00:37:37.697Z,79.06
2023-03-15T00:40:07.388Z,79.79
2023-03-15T00:42:35.509Z,78.84
2023-03-15T00:45:03.812Z,78.92
2023-03-15T00:47:32.579Z,79.99
2023-03-15T00:50:02.686Z,80.41
2023-03-15T00:52:37.085Z,81.30
2023-03-15T00:55:06.562Z,81.00
2023-03-15T00:57:35.597Z,81.93
2023-03-15T01:00:08.857Z,82.44
2023-03-15T01:02:38.142Z,82.71
2023-03-15T01:05:09.688Z,82.55
2023-03-15T01:07:38.134Z,83.36
2023-03-15T01:10:10.128Z,83.65
2023-03-15T01:12:38.355Z,84.19
2023-03-15T01:15:09.089Z,84.79
2023-03-15T01:17:37.483Z,84.04
2023-03-15T01:20:09.264Z,83.76
2023-03-15T01:22:37.478Z,84.06
2023-03-15T01:25:06.297Z,84.68
2023-03-15T01:27:34.449Z,85.13
2023-03-15T01:30:02.526Z,84.62
2023-03-15T01:32:30.832Z,85.38
2023-03-15T01:34:59.011Z,86.06
2023-03-15T01:37:28.799Z,87.50
2023-03-15T01:39:57.135Z,87.83
2023-03-15T01:42:25.236Z,88.36
2023-03-15T01:44:55.749Z,89.87
2023-03-15T01:47:27.163Z,90.19
2023-03-15T01:50:02.546Z,91.36
2023-03-15T01:52:37.312Z,92.09
2023-03-15T01:55:11.303Z,93.16
2023-03-15T01:57:43.460Z,92.76
2023-03-15T02:00:14.210Z,93.36
2023-03-15T02:02:47.389Z,93.04
2023-03-15T02:05:21.577Z,93.02
2023-03-15T02:07:54.778Z,92.86
2023-03-15T02:10:30.057Z,92.25
2023-03-15T02:12:59.633Z,92.62
2023-03-15T02:15:28.004Z,92.08
2023-03-15T02:17:56.318Z,91.83
2023-03-15T02:20:36.406Z,92.08
2023-03-15T02:23:08.592Z,92.11
2023-03-15T02:25:46.568Z,91.81
2023-03-15T02:28:18.273Z,90.69
2023-03-15T02:30:47.604Z,90.90
2023-03-15T02:33:20.406Z,90.54
2023-03-15T02:35:48.644Z,91.63
2023-03-15T02:38:16.671Z,91.79
2023-03-15T02:40:47.267Z,91.43
2023-03-15T02:43:20.751Z,92.53
2023-03-15T02:45:50.718Z,92.29
2023-03-15T02:48:19.671Z,92.44
2023-03-15T02:50:47.843Z,92.27
2023-03-15T02:53:16.202Z,93.22
2023-03-15T02:55:44.435Z,93.16
2023-03-15T02:58:12.557Z,93.28
2023-03-15T03:00:42.227Z,93.23
2023-03-15T03:03:10.297Z,93.86
2023-03-15T03:05:38.627Z,94.61
2023-03-15T03:08:07.485Z,94.71
2023-03-15T03:10:35.570Z,94.71
2023-03-15T03:13:03.843Z,95.43
2023-03-15T03:15:32.195Z,95.55
2023-03-15T03:18:01.824Z,96.44
2023-03-15T03:20:29.983Z,96.92
2023-03-15T03:22:58.127Z,97.93
2023-03-15T03:25:27.509Z,99.92
2023-03-15T03:27:57.503Z,100.00
2023-03-15T03:30:26.284Z,100.00
2023-03-15T03:32:54.554Z,100.00
2023-03-15T03:35:24.192Z,100.00
2023-03-15T03:37:54.026Z,100.00
2023-03-15T03:40:22.295Z,100.00
2023-03-15T03:42:50.414Z,100.00
2023-03-15T03:45:18.738Z,100.00
2023-03-15T03:47:46.845Z,100.00
2023-03-15T03:50:15.019Z,100.00
2023-03-15T03:52:45.261Z,100.00
2023-03-15T03:55:13.999Z,100.00
2023-03-15T03:57:42.929Z,100.00
2023-03-15T04:00:14.489Z,100.00
2023-03-15T04:02:43.967Z,100.00
2023-03-15T04:05:12.573Z,100.00
2023-03-15T04:07:41.460Z,100.00
2023-03-15T04:10:16.620Z,100.00
2023-03-15T04:12:45.541Z,100.00
2023-03-15T04:15:14.053Z,100.00
2023-03-15T04:17:42.298Z,100.00
2023-03-15T04:20:13.093Z,100.00
2023-03-15T04:22:41.312Z,100.00
2023-03-15T04:25:11.804Z,100.00
2023-03-15T04:27:39.871Z,100.00
2023-03-15T04:30:09.029Z,100.00
2023-03-15T04:32:37.326Z,100.00
2023-03-15T04:35:07.598Z,100.00
2023-03-15T04:37:35.631Z,100.00
2023-03-15T04:40:07.201Z,100.00
2023-03-15T04:42:36.815Z,100.00
2023-03-15T04:45:05.639Z,100.00
2023-03-15T04:47:33.800Z,100.00
2023-03-15T04:50:01.952Z,100.00
2023-03-15T04:52:30.274Z,100.00
2023-03-15T04:54:58.310Z,100.00
2023-03-15T04:57:26.395Z,100.00
2023-03-15T04:59:57.124Z,100.00
2023-03-15T05:02:25.454Z,100.00
2023-03-15T05:04:53.786Z,100.00
2023-03-15T05:07:22.248Z,100.00
2023-03-15T05:09:50.390Z,100.00
2023-03-15T05:12:19.402Z,100.00
2023-03-15T05:14:48.194Z,100.00
2023-03-15T05:17:18.037Z,100.00
2023-03-15T05:19:46.777Z,100.00
2023-03-15T05:22:15.329Z,100.00
2023-03-15T05:24:43.957Z,100.00
2023-03-15T05:27:13.813Z,100.00
2023-03-15T05:29:42.079Z,100.00
2023-03-15T05:32:11.144Z,100.00
2023-03-15T05:34:40.866Z,100.00
2023-03-15T05:37:09.326Z,100.00
2023-03-15T05:39:37.517Z,100.00
2023-03-15T05:42:06.258Z,100.00
2023-03-15T05:44:34.494Z,100.00
2023-03-15T05:47:02.941Z,100.00
2023-03-15T05:49:31.241Z,100.00
2023-03-15T05:52:00.810Z,100.00
2023-03-15T05:54:29.012Z,100.00
2023-03-15T05:56:57.202Z,100.00
2023-03-15T05:59:25.511Z,100.00
2023-03-15T06:01:53.969Z,100.00
2023-03-15T06:04:22.136Z,100.00
2023-03-15T06:06:50.513Z,100.00
2023-03-15T06:09:20.880Z,100.00
2023-03-15T06:11:49.013Z,100.00
2023-03-15T06:14:17.232Z,100.00
2023-03-15T06:16:45.572Z,100.00
2023-03-15T06:19:14.186Z,100.00
2023-03-15T06:21:42.490Z,100.00
2023-03-15T06:24:10.658Z,100.00
2023-03-15T06:26:40.218Z,100.00
2023-03-15T06:29:08.460Z,100.00
2023-03-15T06:31:37.379Z,100.00
2023-03-15T06:34:05.596Z,100.00
2023-03-15T06:36:37.076Z,100.00
2023-03-15T06:39:05.851Z,100.00
2023-03-15T06:41:34.340Z,100.00
2023-03-15T06:44:04.134Z,100.00
2023-03-15T06:46:33.537Z,100.00
2023-03-15T06:49:02.196Z,100.00
2023-03-15T06:51:30.608Z,100.00
2023-03-15T06:53:58.792Z,100.00
2023-03-15T06:56:27.135Z,100.00
2023-03-15T06:58:55.370Z,100.00
2023-03-15T07:01:25.542Z,100.00
2023-03-15T07:03:53.918Z,100.00
2023-03-15T07:06:22.041Z,100.00
2023-03-15T07:08:50.201Z,100.00
2023-03-15T07:11:18.815Z,99.74
2023-03-15T07:13:47.741Z,100.00
2023-03-15T07:16:16.766Z,100.00
2023-03-15T07:18:47.161Z,99.17
2023-03-15T07:21:15.377Z,97.22
2023-03-15T07:23:45.472Z,96.82
2023-03-15T07:26:13.621Z,95.29
2023-03-15T07:28:43.754Z,94.92
2023-03-15T07:31:13.116Z,93.62
2023-03-15T07:33:49.015Z,94.24
2023-03-15T07:36:17.298Z,93.73
2023-03-15T07:38:45.872Z,92.47
2023-03-15T07:41:14.127Z,92.17
2023-03-15T07:43:42.230Z,92.33
2023-03-15T07:46:10.418Z,91.66
2023-03-15T07:48:38.800Z,91.56
2023-03-15T07:51:08.544Z,93.23
2023-03-15T07:53:36.555Z,89.49
2023-03-15T07:56:05.105Z,89.85
2023-03-15T07:58:33.658Z,90.46
2023-03-15T08:01:02.272Z,90.34
2023-03-15T08:03:31.764Z,90.90
2023-03-15T08:06:00.032Z,87.85
2023-03-15T08:08:29.571Z,86.20
2023-03-15T08:10:59.506Z,87.25
2023-03-15T08:13:27.868Z,84.58
2023-03-15T08:15:56.123Z,83.15
2023-03-15T08:18:24.350Z,83.37
2023-03-15T08:20:53.043Z,84.32
2023-03-15T08:23:22.409Z,84.11
2023-03-15T08:25:52.391Z,85.17
2023-03-15T08:28:20.807Z,85.58
2023-03-15T08:30:49.528Z,86.01
2023-03-15T08:33:17.881Z,87.04
2023-03-15T08:35:46.095Z,88.06
2023-03-15T08:38:14.741Z,86.26
2023-03-15T08:40:42.833Z,85.87
2023-03-15T08:43:12.838Z,86.17
2023-03-15T08:45:59.497Z,82.94
2023-03-15T08:48:29.046Z,81.02
2023-03-15T08:51:02.577Z,79.42
2023-03-15T08:53:31.127Z,78.69
2023-03-15T08:55:59.452Z,79.85
2023-03-15T08:58:29.095Z,80.44
2023-03-15T09:00:58.105Z,79.66
2023-03-15T09:03:26.317Z,78.28
2023-03-15T09:05:57.821Z,75.61
2023-03-15T09:08:26.437Z,74.21
2023-03-15T09:10:57.078Z,72.79
2023-03-15T09:13:26.304Z,72.64
2023-03-15T09:15:57.359Z,71.28
2023-03-15T09:18:26.399Z,68.85
2023-03-15T09:20:55.729Z,68.02
2023-03-15T09:23:24.894Z,70.31
2023-03-15T09:25:53.814Z,71.21
2023-03-15T09:28:22.030Z,67.56
2023-03-15T09:30:50.805Z,66.61
2023-03-15T09:33:22.552Z,64.58
2023-03-15T09:35:52.460Z,64.81
2023-03-15T09:38:22.169Z,63.68
2023-03-15T09:40:50.865Z,64.75
2023-03-15T09:43:45.672Z,63.13
2023-03-15T09:46:28.570Z,61.10
2023-03-15T09:49:04.394Z,60.23
2023-03-15T09:51:41.027Z,60.80
2023-03-15T09:54:14.116Z,59.84
2023-03-15T09:56:51.690Z,57.35
2023-03-15T09:59:22.927Z,55.06
2023-03-15T10:01:59.319Z,55.84
2023-03-15T10:04:31.402Z,55.84
2023-03-15T10:07:03.058Z,55.33
2023-03-15T10:09:34.612Z,55.10
2023-03-15T10:12:10.639Z,55.75
2023-03-15T10:14:58.892Z,53.08
2023-03-15T10:17:38.946Z,54.08
2023-03-15T10:20:14.175Z,54.20
2023-03-15T10:22:52.021Z,54.60
2023-03-15T10:25:26.549Z,53.47
2023-03-15T10:27:58.759Z,54.74
2023-03-15T10:30:29.065Z,53.56
2023-03-15T10:33:01.106Z,52.68
2023-03-15T10:35:32.191Z,52.46
2023-03-15T10:38:02.718Z,51.71
2023-03-15T10:40:42.281Z,50.85
2023-03-15T10:43:22.365Z,50.34
2023-03-15T10:46:03.009Z,48.94
2023-03-15T10:48:33.178Z,50.22
2023-03-15T10:51:06.887Z,49.80
2023-03-15T10:53:35.252Z,49.66
2023-03-15T10:56:10.422Z,49.57
2023-03-15T10:58:50.814Z,50.65
2023-03-15T11:01:27.119Z,51.45
2023-03-15T11:04:16.272Z,51.06
2023-03-15T11:06:49.045Z,51.28
2023-03-15T11:09:19.092Z,51.13
2023-03-15T11:11:55.894Z,51.32
2023-03-15T11:14:24.935Z,50.43
2023-03-15T11:16:56.214Z,49.23
2023-03-15T11:19:28.994Z,48.20
2023-03-15T11:22:01.094Z,48.58
2023-03-15T11:24:31.575Z,47.77
2023-03-15T11:27:02.817Z,47.85
2023-03-15T11:29:32.964Z,48.10
2023-03-15T11:32:02.629Z,48.11
2023-03-15T11:34:42.207Z,48.34
2023-03-15T11:37:20.591Z,49.05
2023-03-15T11:40:05.145Z,50.20
2023-03-15T11:42:45.576Z,51.11
2023-03-15T11:45:19.510Z,50.99
2023-03-15T11:47:54.345Z,51.27
2023-03-15T11:50:22.902Z,50.48
2023-03-15T11:52:54.033Z,51.64
2023-03-15T11:55:25.748Z,52.31
2023-03-15T11:57:54.629Z,52.14
2023-03-15T12:00:51.610Z,52.24
2023-03-15T12:03:38.880Z,51.62
2023-03-15T12:06:14.993Z,51.70
2023-03-15T12:08:51.470Z,50.95
2023-03-15T12:11:38.863Z,51.58
2023-03-15T12:14:22.591Z,51.87
2023-03-15T12:16:50.809Z,51.58
2023-03-15T12:19:23.159Z,51.51
2023-03-15T12:21:53.369Z,52.07
2023-03-15T12:24:27.533Z,52.10
2023-03-15T12:27:02.504Z,52.01
2023-03-15T12:29:33.691Z,52.16
2023-03-15T12:32:09.987Z,52.35
2023-03-15T12:34:47.180Z,52.80
2023-03-15T12:37:19.795Z,52.07
2023-03-15T12:39:52.903Z,51.11
2023-03-15T12:43:10.023Z,50.53
2023-03-15T12:45:46.755Z,50.29
2023-03-15T12:48:26.650Z,49.26
2023-03-15T12:50:57.789Z,49.22
2023-03-15T12:53:38.962Z,48.42
2023-03-15T12:56:29.372Z,47.77
2023-03-15T12:59:02.262Z,46.61
2023-03-15T13:01:30.467Z,46.99
2023-03-15T13:04:00.856Z,47.46
2023-03-15T13:06:42.289Z,48.56
2023-03-15T13:09:22.647Z,48.68
2023-03-15T13:11:58.213Z,48.67
2023-03-15T13:14:39.460Z,48.73
2023-03-15T13:17:17.472Z,49.51
2023-03-15T13:19:47.904Z,49.21
2023-03-15T13:22:25.413Z,49.40
2023-03-15T13:25:04.817Z,50.25
2023-03-15T13:27:49.665Z,50.52
2023-03-15T13:30:35.560Z,49.88
2023-03-15T13:33:07.932Z,49.76
2023-03-15T13:35:44.300Z,49.67
2023-03-15T13:38:26.105Z,49.62
2023-03-15T13:40:54.873Z,49.00
2023-03-15T13:43:29.557Z,49.10
2023-03-15T13:46:01.102Z,48.51
2023-03-15T13:48:31.386Z,48.22
2023-03-15T13:51:06.532Z,48.36
2023-03-15T13:53:49.539Z,48.47
2023-03-15T13:56:21.783Z,48.14
2023-03-15T13:58:53.123Z,48.29
2023-03-15T14:01:23.513Z,47.95
2023-03-15T14:03:59.136Z,48.64
2023-03-15T14:06:30.102Z,48.24
2023-03-15T14:09:10.763Z,48.11
2023-03-15T14:11:41.221Z,47.91
2023-03-15T14:14:24.329Z,48.54
2023-03-15T14:17:04.220Z,49.36
2023-03-15T14:19:35.869Z,48.78
2023-03-15T14:22:06.338Z,49.00
2023-03-15T14:24:41.170Z,49.16
2023-03-15T14:27:15.417Z,49.41
2023-03-15T14:29:49.856Z,49.06
2023-03-15T14:32:29.037Z,48.68
2023-03-15T14:35:03.220Z,48.10
2023-03-15T14:37:36.833Z,47.81
2023-03-15T14:40:16.933Z,48.19
2023-03-15T14:42:45.881Z,47.83
2023-03-15T14:45:22.581Z,48.70
2023-03-15T14:47:57.189Z,48.87
2023-03-15T14:50:37.041Z,49.37
2023-03-15T14:53:07.961Z,49.56
2023-03-15T14:55:37.951Z,48.75
2023-03-15T14:58:13.318Z,48.93
2023-03-15T15:00:44.618Z,49.40
2023-03-15T15:03:19.919Z,49.40
2023-03-15T15:05:48.347Z,49.13
2023-03-15T15:08:19.613Z,48.79
2023-03-15T15:10:52.788Z,48.72
2023-03-15T15:13:23.328Z,48.93
2023-03-15T15:15:56.213Z,48.59
2023-03-15T15:18:26.099Z,48.78
2023-03-15T15:20:56.319Z,48.70
2023-03-15T15:23:27.587Z,48.51
2023-03-15T15:26:00.198Z,48.37
2023-03-15T15:28:37.532Z,48.67
2023-03-15T15:31:08.397Z,48.96
2023-03-15T15:33:36.697Z,48.95
2023-03-15T15:36:05.326Z,49.03
2023-03-15T15:38:38.897Z,49.66
2023-03-15T15:41:14.047Z,49.89
2023-03-15T15:43:42.468Z,50.10
2023-03-15T15:46:14.112Z,50.72
2023-03-15T15:48:42.893Z,50.83
2023-03-15T15:51:22.624Z,51.50
2023-03-15T15:53:51.123Z,51.64
2023-03-15T15:56:19.337Z,51.95
2023-03-15T15:58:48.314Z,51.50
2023-03-15T16:01:18.164Z,52.10
2023-03-15T16:03:46.303Z,52.22
2023-03-15T16:06:19.180Z,51.87
2023-03-15T16:08:48.747Z,51.97
2023-03-15T16:11:18.976Z,51.85
2023-03-15T16:13:49.534Z,52.23
2023-03-15T16:16:19.953Z,52.16
2023-03-15T16:18:49.133Z,52.46
2023-03-15T16:21:19.751Z,52.43
2023-03-15T16:23:54.915Z,52.64
2023-03-15T16:26:23.718Z,52.48
2023-03-15T16:28:53.175Z,53.06
2023-03-15T16:31:23.637Z,53.03
2023-03-15T16:33:52.780Z,53.38
2023-03-15T16:36:23.072Z,53.62
2023-03-15T16:38:51.251Z,53.72
2023-03-15T16:41:19.876Z,53.91
2023-03-15T16:43:49.445Z,54.01
2023-03-15T16:46:18.625Z,54.10
2023-03-15T16:48:48.319Z,54.33
2023-03-15T16:51:17.532Z,55.49
2023-03-15T16:53:46.122Z,54.89
2023-03-15T16:56:17.290Z,55.22
2023-03-15T16:58:46.148Z,54.78
2023-03-15T17:01:14.572Z,55.00
2023-03-15T17:03:43.014Z,56.14
2023-03-15T17:06:20.343Z,55.88
2023-03-15T17:08:49.854Z,56.15
2023-03-15T17:11:19.365Z,56.50
2023-03-15T17:13:47.679Z,56.45
2023-03-15T17:16:17.074Z,56.96
2023-03-15T17:18:47.901Z,57.23
2023-03-15T17:21:21.973Z,56.99
2023-03-15T17:23:52.610Z,57.96
2023-03-15T17:26:23.599Z,58.23
2023-03-15T17:28:52.722Z,58.57
2023-03-15T17:31:25.624Z,58.74
2023-03-15T17:33:54.163Z,58.96
2023-03-15T17:36:25.683Z,59.42
2023-03-15T17:38:55.399Z,59.66
2023-03-15T17:41:28.063Z,59.14
2023-03-15T17:43:56.575Z,59.26
2023-03-15T17:46:30.153Z,59.40
2023-03-15T17:48:59.286Z,59.57
2023-03-15T17:51:35.446Z,59.83
2023-03-15T17:54:14.812Z,60.41
2023-03-15T17:56:43.419Z,60.35
2023-03-15T17:59:13.179Z,60.41
2023-03-15T18:01:45.847Z,60.60
2023-03-15T18:04:15.062Z,60.63
2023-03-15T18:06:45.036Z,60.27
2023-03-15T18:09:17.857Z,60.65
2023-03-15T18:11:46.821Z,60.53
2023-03-15T18:14:16.820Z,60.79
2023-03-15T18:16:45.461Z,61.02
2023-03-15T18:19:13.877Z,61.35
2023-03-15T18:21:42.122Z,61.57
2023-03-15T18:24:14.481Z,62.05
2023-03-15T18:26:42.759Z,62.13
2023-03-15T18:29:11.029Z,62.32
2023-03-15T18:31:39.434Z,62.14
2023-03-15T18:34:07.744Z,61.92
2023-03-15T18:36:36.534Z,62.28
2023-03-15T18:39:06.616Z,61.99
2023-03-15T18:41:36.632Z,61.88
2023-03-15T18:44:04.985Z,62.40
2023-03-15T18:46:35.700Z,62.43
2023-03-15T18:49:05.062Z,62.69
2023-03-15T18:51:34.360Z,62.37
2023-03-15T18:54:02.717Z,61.85
2023-03-15T18:56:34.451Z,62.08
2023-03-15T18:59:05.117Z,62.35
2023-03-15T19:01:35.236Z,63.02
2023-03-15T19:04:03.811Z,63.16
2023-03-15T19:06:32.421Z,63.43
2023-03-15T19:09:00.951Z,63.60
2023-03-15T19:11:31.824Z,63.44
2023-03-15T19:14:00.355Z,63.89
2023-03-15T19:16:31.658Z,64.38
2023-03-15T19:19:00.425Z,64.82
2023-03-15T19:21:37.259Z,64.92
2023-03-15T19:24:05.701Z,65.18
2023-03-15T19:26:34.720Z,65.55
2023-03-15T19:29:05.771Z,65.54
2023-03-15T19:31:35.857Z,65.39
2023-03-15T19:34:04.255Z,65.94
2023-03-15T19:36:33.082Z,66.59
2023-03-15T19:39:01.272Z,67.07
2023-03-15T19:41:29.591Z,68.04
2023-03-15T19:43:57.896Z,68.60
2023-03-15T19:46:26.271Z,68.91
2023-03-15T19:48:55.988Z,69.41
2023-03-15T19:51:24.350Z,69.61
2023-03-15T19:53:53.833Z,69.32
2023-03-15T19:56:22.392Z,69.72
2023-03-15T19:58:51.503Z,70.29
2023-03-15T20:01:20.075Z,70.90
2023-03-15T20:03:49.324Z,71.13
2023-03-15T20:06:19.022Z,70.38
2023-03-15T20:08:47.308Z,70.20
2023-03-15T20:11:25.124Z,70.37
2023-03-15T20:13:55.131Z,70.96
2023-03-15T20:16:24.424Z,71.63
2023-03-15T20:18:53.827Z,71.11
2023-03-15T20:21:24.174Z,71.42
2023-03-15T20:23:52.896Z,71.64
2023-03-15T20:26:22.546Z,70.89
2023-03-15T20:28:51.666Z,70.81
2023-03-15T20:31:24.016Z,69.73
2023-03-15T20:33:53.004Z,70.90
2023-03-15T20:36:22.010Z,71.48
2023-03-15T20:38:51.639Z,72.10
2023-03-15T20:41:19.959Z,72.16
2023-03-15T20:43:48.219Z,72.11
2023-03-15T20:46:19.352Z,71.83
2023-03-15T20:48:48.628Z,71.54
2023-03-15T20:51:16.974Z,71.65
2023-03-15T20:53:46.325Z,72.35
2023-03-15T20:56:16.611Z,73.44
2023-03-15T20:58:45.354Z,74.36
2023-03-15T21:01:17.893Z,74.81
2023-03-15T21:03:47.666Z,74.83
2023-03-15T21:06:16.596Z,73.93
2023-03-15T21:08:47.510Z,73.06
2023-03-15T21:11:17.302Z,72.93
2023-03-15T21:13:46.216Z,72.08
2023-03-15T21:16:14.644Z,72.48
2023-03-15T21:18:45.300Z,71.92
2023-03-15T21:21:13.940Z,71.28
2023-03-15T21:23:42.445Z,70.88
2023-03-15T21:26:13.225Z,71.14
2023-03-15T21:28:43.359Z,71.56
2023-03-15T21:31:12.060Z,72.09
2023-03-15T21:33:40.513Z,72.40
2023-03-15T21:36:09.289Z,73.06
2023-03-15T21:38:37.913Z,73.55
2023-03-15T21:41:10.297Z,73.62
2023-03-15T21:43:38.949Z,72.81
2023-03-15T21:46:10.637Z,72.49
2023-03-15T21:48:40.263Z,71.76
2023-03-15T21:51:09.019Z,71.58
2023-03-15T21:53:38.548Z,72.07
2023-03-15T21:56:08.315Z,72.33
2023-03-15T21:58:36.525Z,71.64
2023-03-15T22:01:10.026Z,71.44
2023-03-15T22:03:39.400Z,71.19
2023-03-15T22:06:08.405Z,71.37
2023-03-15T22:08:36.953Z,71.00
2023-03-15T22:11:05.313Z,70.62
2023-03-15T22:13:33.774Z,70.42
2023-03-15T22:16:02.597Z,70.70
2023-03-15T22:18:32.864Z,70.22
2023-03-15T22:21:01.242Z,70.19
2023-03-15T22:23:29.294Z,70.92
2023-03-15T22:25:57.508Z,70.63
2023-03-15T22:28:26.296Z,70.81
2023-03-15T22:30:54.853Z,71.15
2023-03-15T22:33:23.647Z,70.92
2023-03-15T22:35:57.767Z,70.39
2023-03-15T22:38:27.284Z,70.72
2023-03-15T22:41:03.034Z,71.11
2023-03-15T22:43:31.311Z,70.86
2023-03-15T22:45:59.836Z,69.22
2023-03-15T22:48:28.248Z,68.00
2023-03-15T22:51:02.407Z,68.47
2023-03-15T22:53:32.209Z,68.14
2023-03-15T22:56:00.809Z,67.40
2023-03-15T22:58:32.000Z,66.73
2023-03-15T23:01:00.625Z,66.88
2023-03-15T23:03:29.478Z,67.05
2023-03-15T23:05:57.966Z,67.38
2023-03-15T23:08:27.611Z,66.76
2023-03-15T23:10:58.856Z,66.99
2023-03-15T23:13:27.035Z,66.00
2023-03-15T23:15:55.536Z,66.28
2023-03-15T23:18:24.623Z,66.37
2023-03-15T23:20:53.155Z,65.75
2023-03-15T23:23:21.407Z,65.51
2023-03-15T23:25:54.066Z,65.78
2023-03-15T23:28:24.408Z,66.67
2023-03-15T23:30:52.755Z,67.04
2023-03-15T23:33:20.968Z,67.23
2023-03-15T23:35:49.104Z,68.12
2023-03-15T23:38:17.257Z,68.71
2023-03-15T23:40:45.504Z,68.99
2023-03-15T23:43:16.307Z,68.94
2023-03-15T23:45:44.545Z,68.44
2023-03-15T23:48:13.174Z,69.16
2023-03-15T23:50:44.346Z,69.44
2023-03-15T23:53:12.474Z,68.59
2023-03-15T23:55:41.361Z,69.28
2023-03-15T23:58:09.398Z,68.70
